createdAt,value
2018-04-29T00:00:09.905Z,63.00
2018-04-29T00:02:37.460Z,63.50
2018-04-29T00:05:05.000Z,63.90
2018-04-29T00:07:33.297Z,64.00
2018-04-29T00:10:01.302Z,63.90
2018-04-29T00:12:29.298Z,63.80
2018-04-29T00:14:56.795Z,62.60
2018-04-29T00:17:25.084Z,62.10
2018-04-29T00:19:53.364Z,61.90
2018-04-29T00:22:20.992Z,61.80
2018-04-29T00:24:48.735Z,61.80
2018-04-29T00:27:16.277Z,62.50
2018-04-29T00:29:43.790Z,62.80
2018-04-29T00:32:11.346Z,62.30
2018-04-29T00:34:38.832Z,62.80
2018-04-29T00:37:06.367Z,62.80
2018-04-29T00:39:33.950Z,63.00
2018-04-29T00:42:01.469Z,63.40
2018-04-29T00:44:29.026Z,63.50
2018-04-29T00:46:56.530Z,63.60
2018-04-29T00:49:24.076Z,63.60
2018-04-29T00:52:03.634Z,63.80
2018-04-29T00:54:31.217Z,64.00
2018-04-29T00:56:58.716Z,64.40
2018-04-29T00:59:26.222Z,66.00
2018-04-29T01:01:53.752Z,65.90
2018-04-29T01:04:21.273Z,66.20
2018-04-29T01:06:48.794Z,66.80
2018-04-29T01:09:16.516Z,66.80
2018-04-29T01:11:44.811Z,67.30
2018-04-29T01:14:13.096Z,67.80
2018-04-29T01:16:40.626Z,67.80
2018-04-29T01:19:08.138Z,68.20
2018-04-29T01:21:35.873Z,68.60
2018-04-29T01:24:04.156Z,69.00
2018-04-29T01:26:32.479Z,68.70
2018-04-29T01:29:00.134Z,68.70
2018-04-29T01:31:27.735Z,68.80
2018-04-29T01:33:55.472Z,69.10
2018-04-29T01:36:23.012Z,69.10
2018-04-29T01:38:51.315Z,68.90
2018-04-29T01:41:18.825Z,68.80
2018-04-29T01:43:46.369Z,68.70
2018-04-29T01:46:13.881Z,68.80
2018-04-29T01:48:42.184Z,68.90
2018-04-29T01:51:09.711Z,68.90
2018-04-29T01:53:38.014Z,69.70
2018-04-29T01:56:05.559Z,69.70
2018-04-29T01:58:33.832Z,70.00
2018-04-29T02:01:01.334Z,69.90
2018-04-29T02:03:28.858Z,69.90
2018-04-29T02:05:57.131Z,69.50
2018-04-29T02:08:24.734Z,70.00
2018-04-29T02:10:52.269Z,69.70
2018-04-29T02:13:19.771Z,69.90
2018-04-29T02:15:47.979Z,70.60
2018-04-29T02:18:15.468Z,70.20
2018-04-29T02:20:42.980Z,70.50
2018-04-29T02:23:10.485Z,70.80
2018-04-29T02:25:37.988Z,71.00
2018-04-29T02:28:06.875Z,71.20
2018-04-29T02:30:35.157Z,71.10
2018-04-29T02:33:02.699Z,71.10
2018-04-29T02:35:30.212Z,71.20
2018-04-29T02:37:57.770Z,72.40
2018-04-29T02:40:26.055Z,72.00
2018-04-29T02:42:53.573Z,72.30
2018-04-29T02:45:21.851Z,72.90
2018-04-29T02:47:49.355Z,72.70
2018-04-29T02:50:16.999Z,72.60
2018-04-29T02:52:45.441Z,73.20
2018-04-29T02:55:12.971Z,73.20
2018-04-29T02:57:40.452Z,73.20
2018-04-29T03:00:08.094Z,73.20
2018-04-29T03:02:35.626Z,72.70
2018-04-29T03:05:03.195Z,72.00
2018-04-29T03:07:30.773Z,72.00
2018-04-29T03:09:59.131Z,70.50
2018-04-29T03:12:26.944Z,70.50
2018-04-29T03:14:54.619Z,70.40
2018-04-29T03:17:22.957Z,71.30
2018-04-29T03:19:50.515Z,71.10
2018-04-29T03:22:18.017Z,72.00
2018-04-29T03:24:45.575Z,71.50
2018-04-29T03:27:14.009Z,71.80
2018-04-29T03:29:41.539Z,71.60
2018-04-29T03:32:09.105Z,71.20
2018-04-29T03:34:36.821Z,71.50
2018-04-29T03:37:04.357Z,72.20
2018-04-29T03:39:31.859Z,73.50
2018-04-29T03:42:00.319Z,73.50
2018-04-29T03:44:27.833Z,73.50
2018-04-29T03:46:55.344Z,73.60
2018-04-29T03:49:22.911Z,73.60
2018-04-29T03:51:50.505Z,72.90
2018-04-29T03:54:18.773Z,73.70
2018-04-29T03:56:47.137Z,73.90
2018-04-29T03:59:27.383Z,74.40
2018-04-29T04:02:06.700Z,73.80
2018-04-29T04:04:34.211Z,74.00
2018-04-29T04:07:01.725Z,74.00
2018-04-29T04:09:29.220Z,74.00
2018-04-29T04:11:58.228Z,74.10
2018-04-29T04:14:25.724Z,74.10
2018-04-29T04:16:53.236Z,74.60
2018-04-29T04:19:20.778Z,74.30
2018-04-29T04:21:48.297Z,73.40
2018-04-29T04:24:16.572Z,73.50
2018-04-29T04:26:45.913Z,73.30
2018-04-29T04:29:13.406Z,73.30
2018-04-29T04:31:40.967Z,73.30
2018-04-29T04:34:08.516Z,72.90
2018-04-29T04:36:36.129Z,73.00
2018-04-29T04:39:03.791Z,72.70
2018-04-29T04:41:31.284Z,72.60
2018-04-29T04:43:58.805Z,72.30
2018-04-29T04:46:26.357Z,73.00
2018-04-29T04:48:53.875Z,72.70
2018-04-29T04:51:21.375Z,71.50
2018-04-29T04:53:48.882Z,72.20
2018-04-29T04:56:17.169Z,72.00
2018-04-29T04:58:45.456Z,71.90
2018-04-29T05:01:13.758Z,71.90
2018-04-29T05:03:41.252Z,71.80
2018-04-29T05:06:08.784Z,71.80
2018-04-29T05:08:36.288Z,71.70
2018-04-29T05:11:03.794Z,71.50
2018-04-29T05:13:32.058Z,71.50
2018-04-29T05:16:00.335Z,71.40
2018-04-29T05:18:28.612Z,70.80
2018-04-29T05:20:56.958Z,68.00
2018-04-29T05:23:24.483Z,67.90
2018-04-29T05:25:52.812Z,64.50
2018-04-29T05:28:20.327Z,64.40
2018-04-29T05:30:48.596Z,60.60
2018-04-29T05:33:17.265Z,59.70
2018-04-29T05:35:44.774Z,59.60
2018-04-29T05:38:12.341Z,59.60
2018-04-29T05:40:39.885Z,57.80
2018-04-29T05:43:10.247Z,57.20
2018-04-29T05:45:37.751Z,57.20
2018-04-29T05:48:05.273Z,57.00
2018-04-29T05:50:32.893Z,55.70
2018-04-29T05:53:01.191Z,56.60
2018-04-29T05:55:29.669Z,56.60
2018-04-29T05:57:57.956Z,52.90
2018-04-29T06:00:26.297Z,52.60
2018-04-29T06:02:53.777Z,52.60
2018-04-29T06:05:21.293Z,52.80
2018-04-29T06:07:49.014Z,52.30
2018-04-29T06:10:17.242Z,52.60
2018-04-29T06:12:44.784Z,52.80
2018-04-29T06:15:12.292Z,52.20
2018-04-29T06:17:39.904Z,52.90
2018-04-29T06:20:08.238Z,53.40
2018-04-29T06:22:35.768Z,53.40
2018-04-29T06:25:03.300Z,53.50
2018-04-29T06:27:31.579Z,54.50
2018-04-29T06:30:01.000Z,54.50
2018-04-29T06:32:29.474Z,52.50
2018-04-29T06:34:57.792Z,51.70
2018-04-29T06:37:25.296Z,51.60
2018-04-29T06:39:53.768Z,50.60
2018-04-29T06:42:21.384Z,51.80
2018-04-29T06:44:48.886Z,51.30
2018-04-29T06:47:16.402Z,50.10
2018-04-29T06:49:44.693Z,48.50
2018-04-29T06:52:12.998Z,48.00
2018-04-29T06:54:41.376Z,48.00
2018-04-29T06:57:08.894Z,48.30
2018-04-29T06:59:37.174Z,45.80
2018-04-29T07:02:04.694Z,45.60
2018-04-29T07:04:32.213Z,45.40
2018-04-29T07:07:00.527Z,45.30
2018-04-29T07:09:28.047Z,45.30
2018-04-29T07:11:56.275Z,44.50
2018-04-29T07:14:23.774Z,43.40
2018-04-29T07:16:51.284Z,43.60
2018-04-29T07:19:18.813Z,44.10
2018-04-29T07:21:47.832Z,45.10
2018-04-29T07:24:16.111Z,45.90
2018-04-29T07:26:44.400Z,46.40
2018-04-29T07:29:12.697Z,46.40
2018-04-29T07:31:40.227Z,46.40
2018-04-29T07:34:07.759Z,46.70
2018-04-29T07:36:35.290Z,45.00
2018-04-29T07:39:02.883Z,44.60
2018-04-29T07:41:30.409Z,44.30
2018-04-29T07:43:59.100Z,43.10
2018-04-29T07:46:26.708Z,43.10
2018-04-29T07:48:54.339Z,43.70
2018-04-29T07:51:21.867Z,42.80
2018-04-29T07:53:49.410Z,41.80
2018-04-29T07:56:16.914Z,41.10
2018-04-29T07:58:45.197Z,43.20
2018-04-29T08:01:12.714Z,43.20
2018-04-29T08:03:40.253Z,43.50
2018-04-29T08:06:07.783Z,43.00
2018-04-29T08:08:38.887Z,43.10
2018-04-29T08:11:06.378Z,43.00
2018-04-29T08:13:33.913Z,41.50
2018-04-29T08:16:01.413Z,41.80
2018-04-29T08:18:29.671Z,39.10
2018-04-29T08:20:57.987Z,39.70
2018-04-29T08:23:25.548Z,39.70
2018-04-29T08:25:53.841Z,39.80
2018-04-29T08:28:21.350Z,39.70
2018-04-29T08:30:48.885Z,38.90
2018-04-29T08:33:16.393Z,39.20
2018-04-29T08:35:44.022Z,39.20
2018-04-29T08:38:12.225Z,39.30
2018-04-29T08:40:39.788Z,40.20
2018-04-29T08:43:07.323Z,41.20
2018-04-29T08:45:38.639Z,41.70
2018-04-29T08:48:06.201Z,42.00
2018-04-29T08:50:33.824Z,43.00
2018-04-29T08:53:01.350Z,43.30
2018-04-29T08:55:28.861Z,44.50
2018-04-29T08:57:56.416Z,45.00
2018-04-29T09:00:23.894Z,43.20
2018-04-29T09:02:51.436Z,42.50
2018-04-29T09:05:18.974Z,42.70
2018-04-29T09:07:46.508Z,43.30
2018-04-29T09:10:14.922Z,46.40
2018-04-29T09:12:42.538Z,46.30
2018-04-29T09:15:10.144Z,46.60
2018-04-29T09:17:37.674Z,46.70
2018-04-29T09:20:05.973Z,49.50
2018-04-29T09:22:33.528Z,49.50
2018-04-29T09:25:01.869Z,51.50
2018-04-29T09:27:29.352Z,51.50
2018-04-29T09:29:57.097Z,50.10
2018-04-29T09:32:24.611Z,49.10
2018-04-29T09:34:52.905Z,48.70
2018-04-29T09:37:21.201Z,49.70
2018-04-29T09:39:48.729Z,49.70
2018-04-29T09:42:16.269Z,50.50
2018-04-29T09:44:43.830Z,49.30
2018-04-29T09:47:11.521Z,46.20
2018-04-29T09:49:39.861Z,45.00
2018-04-29T09:52:07.566Z,45.00
2018-04-29T09:54:35.387Z,44.50
2018-04-29T09:57:02.916Z,43.80
2018-04-29T09:59:31.361Z,44.20
2018-04-29T10:02:02.874Z,44.20
2018-04-29T10:04:30.448Z,44.20
2018-04-29T10:06:58.062Z,43.50
2018-04-29T10:09:26.541Z,42.10
2018-04-29T10:11:54.278Z,42.00
2018-04-29T10:14:21.876Z,42.10
2018-04-29T10:16:49.367Z,42.60
2018-04-29T10:19:17.706Z,43.10
2018-04-29T10:21:45.206Z,43.10
2018-04-29T10:24:13.866Z,42.90
2018-04-29T10:26:42.641Z,42.90
2018-04-29T10:29:10.200Z,43.00
2018-04-29T10:31:39.293Z,42.40
2018-04-29T10:34:06.822Z,42.70
2018-04-29T10:36:35.103Z,41.90
2018-04-29T10:39:04.375Z,42.20
2018-04-29T10:41:31.875Z,42.10
2018-04-29T10:44:00.185Z,42.20
2018-04-29T10:46:27.740Z,42.20
2018-04-29T10:49:02.823Z,42.00
2018-04-29T10:51:30.377Z,42.00
2018-04-29T10:53:59.368Z,42.60
2018-04-29T10:56:26.892Z,42.30
2018-04-29T10:58:54.399Z,42.00
2018-04-29T11:01:22.013Z,41.90
2018-04-29T11:03:50.302Z,41.70
2018-04-29T11:06:17.896Z,42.30
2018-04-29T11:08:46.167Z,41.40
2018-04-29T11:11:13.693Z,41.50
2018-04-29T11:13:41.981Z,41.20
2018-04-29T11:16:10.285Z,40.80
2018-04-29T11:18:37.861Z,40.80
2018-04-29T11:21:05.458Z,40.80
2018-04-29T11:23:33.080Z,40.30
2018-04-29T11:26:00.662Z,40.90
2018-04-29T11:28:28.229Z,40.80
2018-04-29T11:30:57.936Z,41.40
2018-04-29T11:33:25.424Z,41.20
2018-04-29T11:35:52.948Z,40.80
2018-04-29T11:38:20.470Z,40.60
2018-04-29T11:40:48.793Z,41.70
2018-04-29T11:43:16.344Z,41.70
2018-04-29T11:45:43.869Z,41.70
2018-04-29T11:48:11.390Z,41.90
2018-04-29T11:50:38.884Z,41.70
2018-04-29T11:53:06.478Z,42.10
2018-04-29T11:55:34.039Z,42.90
2018-04-29T11:58:01.622Z,43.00
2018-04-29T12:00:29.918Z,42.90
2018-04-29T12:02:57.644Z,42.90
2018-04-29T12:05:25.195Z,42.90
2018-04-29T12:07:52.696Z,42.60
2018-04-29T12:10:20.998Z,41.80
2018-04-29T12:12:48.528Z,41.80
2018-04-29T12:15:17.358Z,41.50
2018-04-29T12:17:45.006Z,41.50
2018-04-29T12:20:12.800Z,42.00
2018-04-29T12:22:40.364Z,41.60
2018-04-29T12:25:07.879Z,42.00
2018-04-29T12:27:35.392Z,42.00
2018-04-29T12:30:02.929Z,41.90
2018-04-29T12:32:31.206Z,40.80
2018-04-29T12:34:59.174Z,40.80
2018-04-29T12:37:26.684Z,41.70
2018-04-29T12:39:54.226Z,41.60
2018-04-29T12:42:25.001Z,41.10
2018-04-29T12:44:52.488Z,40.90
2018-04-29T12:47:20.764Z,40.20
2018-04-29T12:49:48.318Z,40.10
2018-04-29T12:52:16.203Z,40.00
2018-04-29T12:54:43.871Z,40.30
2018-04-29T12:57:11.400Z,40.40
2018-04-29T12:59:39.508Z,40.10
2018-04-29T13:02:07.997Z,39.90
2018-04-29T13:04:35.606Z,39.90
2018-04-29T13:07:03.206Z,40.40
2018-04-29T13:09:30.733Z,39.90
2018-04-29T13:11:58.290Z,39.30
2018-04-29T13:14:25.836Z,39.50
2018-04-29T13:16:59.858Z,39.80
2018-04-29T13:19:27.496Z,39.70
2018-04-29T13:21:55.114Z,40.10
2018-04-29T13:24:24.684Z,39.10
2018-04-29T13:26:53.042Z,39.30
2018-04-29T13:29:20.554Z,39.30
2018-04-29T13:31:50.512Z,39.90
2018-04-29T13:34:18.023Z,39.80
2018-04-29T13:36:49.861Z,40.00
2018-04-29T13:39:18.163Z,40.80
2018-04-29T13:41:45.714Z,40.40
2018-04-29T13:44:14.169Z,39.40
2018-04-29T13:46:41.839Z,39.40
2018-04-29T13:49:09.426Z,39.50
2018-04-29T13:51:39.128Z,41.50
2018-04-29T13:54:07.504Z,41.50
2018-04-29T13:56:35.045Z,41.80
2018-04-29T13:59:02.529Z,42.30
2018-04-29T14:01:30.073Z,41.20
2018-04-29T14:03:57.602Z,41.30
2018-04-29T14:06:25.896Z,42.10
2018-04-29T14:08:53.469Z,42.10
2018-04-29T14:11:20.994Z,42.20
2018-04-29T14:13:49.410Z,41.70
2018-04-29T14:16:17.587Z,41.70
2018-04-29T14:18:45.096Z,42.10
2018-04-29T14:21:12.789Z,42.00
2018-04-29T14:23:41.083Z,41.90
2018-04-29T14:26:09.354Z,41.80
2018-04-29T14:28:37.661Z,41.90
2018-04-29T14:31:05.163Z,41.90
2018-04-29T14:33:32.661Z,42.00
2018-04-29T14:36:00.969Z,42.60
2018-04-29T14:38:28.467Z,42.60
2018-04-29T14:40:55.975Z,42.70
2018-04-29T14:43:24.236Z,42.90
2018-04-29T14:45:52.629Z,43.50
2018-04-29T14:48:20.872Z,43.70
2018-04-29T14:50:48.404Z,43.70
2018-04-29T14:53:15.974Z,44.00
2018-04-29T14:55:43.469Z,43.80
2018-04-29T14:58:10.973Z,44.20
2018-04-29T15:00:39.620Z,44.50
2018-04-29T15:03:07.139Z,44.40
2018-04-29T15:05:38.122Z,44.70
2018-04-29T15:08:06.433Z,43.90
2018-04-29T15:10:33.994Z,43.90
2018-04-29T15:13:01.665Z,44.50
2018-04-29T15:15:29.941Z,44.20
2018-04-29T15:17:58.741Z,45.00
2018-04-29T15:20:27.453Z,45.50
2018-04-29T15:22:56.731Z,45.10
2018-04-29T15:25:24.314Z,45.00
2018-04-29T15:27:52.596Z,45.70
2018-04-29T15:30:21.590Z,45.50
2018-04-29T15:32:49.969Z,46.20
2018-04-29T15:35:17.659Z,46.10
2018-04-29T15:37:45.678Z,46.30
2018-04-29T15:40:13.327Z,46.10
2018-04-29T15:42:41.005Z,46.50
2018-04-29T15:45:08.565Z,46.20
2018-04-29T15:47:36.151Z,46.10
2018-04-29T15:50:03.666Z,46.40
2018-04-29T15:52:31.905Z,46.50
2018-04-29T15:55:00.179Z,46.70
2018-04-29T15:57:28.544Z,46.80
2018-04-29T15:59:56.223Z,46.80
2018-04-29T16:02:24.571Z,47.40
2018-04-29T16:04:52.671Z,47.30
2018-04-29T16:07:20.242Z,47.00
2018-04-29T16:09:47.835Z,47.10
2018-04-29T16:12:16.679Z,47.20
2018-04-29T16:14:44.200Z,47.10
2018-04-29T16:17:12.553Z,47.80
2018-04-29T16:19:40.069Z,47.80
2018-04-29T16:22:07.627Z,47.70
2018-04-29T16:24:35.139Z,48.00
2018-04-29T16:27:02.739Z,48.10
2018-04-29T16:29:30.547Z,48.30
2018-04-29T16:31:58.906Z,48.70
2018-04-29T16:34:26.419Z,48.60
2018-04-29T16:36:53.955Z,49.00
2018-04-29T16:39:21.816Z,48.20
2018-04-29T16:41:49.367Z,48.60
2018-04-29T16:44:17.016Z,48.70
2018-04-29T16:46:45.431Z,49.40
2018-04-29T16:49:12.925Z,49.30
2018-04-29T16:51:40.426Z,49.30
2018-04-29T16:54:09.435Z,48.70
2018-04-29T16:56:38.290Z,48.70
2018-04-29T16:59:06.032Z,48.50
2018-04-29T17:01:33.590Z,48.00
2018-04-29T17:04:01.126Z,47.90
2018-04-29T17:06:28.643Z,48.30
2018-04-29T17:08:56.214Z,48.70
2018-04-29T17:11:23.736Z,48.30
2018-04-29T17:13:51.387Z,48.00
2018-04-29T17:16:18.926Z,48.30
2018-04-29T17:18:46.421Z,48.50
2018-04-29T17:21:14.793Z,48.30
2018-04-29T17:23:43.491Z,48.50
2018-04-29T17:26:11.166Z,48.40
2018-04-29T17:28:38.852Z,48.60
2018-04-29T17:31:06.392Z,48.80
2018-04-29T17:33:33.914Z,49.20
2018-04-29T17:36:01.427Z,49.40
2018-04-29T17:38:28.949Z,49.60
2018-04-29T17:40:56.466Z,49.90
2018-04-29T17:43:24.107Z,50.20
2018-04-29T17:45:51.663Z,50.50
2018-04-29T17:48:19.980Z,51.00
2018-04-29T17:50:47.477Z,51.00
2018-04-29T17:53:14.999Z,51.10
2018-04-29T17:55:42.495Z,51.50
2018-04-29T17:58:10.037Z,51.40
2018-04-29T18:00:37.549Z,52.10
2018-04-29T18:03:06.572Z,52.10
2018-04-29T18:05:34.669Z,52.10
2018-04-29T18:08:02.203Z,52.50
2018-04-29T18:10:29.709Z,52.80
2018-04-29T18:12:57.329Z,52.90
2018-04-29T18:15:25.677Z,53.40
2018-04-29T18:17:53.155Z,53.40
2018-04-29T18:20:21.435Z,54.10
2018-04-29T18:22:52.059Z,54.30
2018-04-29T18:25:21.164Z,54.40
2018-04-29T18:27:48.865Z,54.40
2018-04-29T18:30:16.384Z,54.60
2018-04-29T18:32:44.411Z,54.70
2018-04-29T18:35:12.157Z,55.40
2018-04-29T18:37:40.439Z,55.30
2018-04-29T18:40:08.740Z,55.30
2018-04-29T18:42:40.283Z,55.50
2018-04-29T18:45:08.729Z,55.60
2018-04-29T18:47:37.046Z,55.50
2018-04-29T18:50:05.339Z,55.60
2018-04-29T18:52:32.905Z,55.60
2018-04-29T18:55:00.839Z,55.70
2018-04-29T18:57:28.897Z,55.70
2018-04-29T18:59:56.602Z,55.80
2018-04-29T19:02:24.031Z,56.00
2018-04-29T19:04:51.607Z,56.20
2018-04-29T19:07:20.732Z,56.40
2018-04-29T19:09:49.109Z,56.50
2018-04-29T19:12:17.367Z,57.00
2018-04-29T19:14:44.907Z,57.00
2018-04-29T19:17:13.154Z,57.00
2018-04-29T19:19:41.424Z,57.50
2018-04-29T19:22:09.779Z,57.50
2018-04-29T19:24:38.147Z,57.50
2018-04-29T19:27:05.773Z,58.00
2018-04-29T19:29:33.336Z,57.90
2018-04-29T19:32:00.864Z,58.00
2018-04-29T19:34:28.609Z,58.20
2018-04-29T19:36:56.131Z,58.50
2018-04-29T19:39:23.663Z,58.50
2018-04-29T19:41:51.943Z,58.80
2018-04-29T19:44:20.221Z,58.90
2018-04-29T19:46:48.517Z,58.80
2018-04-29T19:49:16.789Z,58.70
2018-04-29T19:51:45.079Z,58.70
2018-04-29T19:54:13.559Z,58.70
2018-04-29T19:56:41.860Z,58.90
2018-04-29T19:59:09.385Z,59.30
2018-04-29T20:01:37.043Z,58.80
2018-04-29T20:04:04.583Z,59.50
2018-04-29T20:06:32.109Z,58.90
2018-04-29T20:08:59.648Z,58.90
2018-04-29T20:11:28.136Z,59.00
2018-04-29T20:13:55.691Z,58.90
2018-04-29T20:16:23.299Z,59.00
2018-04-29T20:18:50.808Z,59.30
2018-04-29T20:21:18.334Z,59.20
2018-04-29T20:23:45.921Z,59.10
2018-04-29T20:26:14.124Z,59.10
2018-04-29T20:28:41.699Z,59.10
2018-04-29T20:31:09.226Z,59.80
2018-04-29T20:33:36.769Z,59.40
2018-04-29T20:36:04.385Z,59.50
2018-04-29T20:38:31.943Z,59.60
2018-04-29T20:40:59.537Z,60.20
2018-04-29T20:43:27.840Z,60.00
2018-04-29T20:45:55.428Z,60.00
2018-04-29T20:48:23.026Z,60.10
2018-04-29T20:50:50.602Z,60.50
2018-04-29T20:53:18.899Z,60.90
2018-04-29T20:55:46.428Z,60.80
2018-04-29T20:58:14.421Z,61.10
2018-04-29T21:00:42.027Z,61.40
2018-04-29T21:03:09.505Z,61.50
2018-04-29T21:05:37.051Z,61.80
2018-04-29T21:08:05.693Z,62.20
2018-04-29T21:10:33.452Z,62.20
2018-04-29T21:13:00.979Z,62.60
2018-04-29T21:15:28.757Z,62.60
2018-04-29T21:17:56.643Z,62.90
2018-04-29T21:20:27.163Z,63.10
2018-04-29T21:22:56.269Z,63.40
2018-04-29T21:25:24.104Z,63.60
2018-04-29T21:27:51.758Z,63.90
2018-04-29T21:30:19.434Z,64.00
2018-04-29T21:32:46.957Z,64.20
2018-04-29T21:35:14.515Z,64.40
2018-04-29T21:37:42.078Z,64.60
2018-04-29T21:40:09.631Z,64.80
2018-04-29T21:42:37.197Z,65.00
2018-04-29T21:45:04.683Z,65.30
2018-04-29T21:47:32.389Z,65.50
2018-04-29T21:49:59.949Z,65.60
2018-04-29T21:52:28.255Z,66.00
2018-04-29T21:54:55.793Z,66.00
2018-04-29T21:57:24.050Z,66.30
2018-04-29T21:59:52.422Z,66.30
2018-04-29T22:02:20.848Z,66.70
2018-04-29T22:04:48.363Z,66.50
2018-04-29T22:07:15.992Z,66.80
2018-04-29T22:09:43.649Z,67.10
2018-04-29T22:12:11.160Z,67.20
2018-04-29T22:14:38.753Z,67.30
2018-04-29T22:17:07.217Z,67.50
2018-04-29T22:19:36.245Z,67.70
2018-04-29T22:22:04.601Z,67.70
2018-04-29T22:24:32.884Z,67.90
2018-04-29T22:27:00.412Z,67.80
2018-04-29T22:29:27.949Z,68.00
2018-04-29T22:31:55.456Z,68.00
2018-04-29T22:34:22.972Z,68.10
2018-04-29T22:36:51.242Z,68.70
2018-04-29T22:39:18.921Z,68.30
2018-04-29T22:41:46.448Z,68.40
2018-04-29T22:44:14.059Z,68.50
2018-04-29T22:46:41.620Z,68.70
2018-04-29T22:49:09.154Z,68.80
2018-04-29T22:51:37.470Z,68.90
2018-04-29T22:54:04.999Z,68.90
2018-04-29T22:56:32.700Z,69.10
2018-04-29T22:59:00.217Z,69.30
2018-04-29T23:01:27.747Z,69.20
2018-04-29T23:03:55.489Z,69.40
2018-04-29T23:06:23.633Z,69.50
2018-04-29T23:08:51.244Z,69.50
2018-04-29T23:11:18.772Z,69.60
2018-04-29T23:13:47.128Z,70.00
2018-04-29T23:16:14.624Z,69.90
2018-04-29T23:18:42.938Z,70.10
2018-04-29T23:21:10.453Z,70.10
2018-04-29T23:23:38.778Z,70.20
2018-04-29T23:26:06.281Z,70.10
2018-04-29T23:28:33.807Z,70.30
2018-04-29T23:31:01.327Z,70.40
2018-04-29T23:33:29.606Z,70.50
2018-04-29T23:35:57.881Z,70.50
2018-04-29T23:38:25.406Z,70.50
2018-04-29T23:40:52.936Z,70.60
2018-04-29T23:43:21.208Z,70.80
2018-04-29T23:45:49.494Z,70.90
2018-04-29T23:48:17.015Z,70.90
2018-04-29T23:50:44.499Z,71.00
2018-04-29T23:53:12.785Z,71.90
2018-04-29T23:55:40.420Z,71.10
2018-04-29T23:58:07.910Z,71.30
